Decoded Metar for EPWR (WROCLAW in POLAND) (IATA:WRO) | Meteo·Mobile Aviation Weather
aviador You're here:

EPWR Decoded Metar

WROCLAW in POLAND
Report Time2019-04-23 16:30:00
UTC Time2019-04-23 16:43:54
Flight Rules vfr VFR
Wind150° at 23 kt
W.Decomp.*RWY 11: 18.4 kt HW 13.8 kt RCW
Visibility9999 m
Phenomena:N/A
Clouds:Few CB 040 Hf
Expected CloudBase > 4,800 ft AGL from Temp-Dew spread
CeilingNone
Temp17°C (ISA +3)
Dew Point05°C (45% RH)
AAT7.6°C
QNH1012 hPa
Density Alt879 ft
Elevation397 ft
Report Wrong Elevation
Raw Report
EPWR 231630Z 15023KT 9999 FEW040CB 17/05 Q1012=

Extra information for EPWR:More info

Metar Taf Metar & Taf Last 4 Metars F.Rules Stats Wind Profile Meteogram Temp Stats Airport Information Weather charts Add Link Nearby VenuesMetar ALERT Operation Metar Decoded Social comments